Résultats de la compétition "Col d'Ornon " du 05-06-2010 organisée par le club 3801
     
  Télécharger le fichier CSV.  
     
     

 Circuit "E"

Licence Nom Prénom Temps CN
précédent
Score sur
la course
Différence
11355BASSETMarian0:18:2644163824-592
18120CHABANCEThomas0:19:5040913554-537
19767LOPEZEtienne0:22:5623733074+701
10184BODYMathilde0:24:1128912915+24
17925DROINSolene0:24:3424792869+390
8975PERRINArnaud0:26:3241692657-1512
19401VIVIER-BOUDRIERThéo0:26:3625882650+62
23286JOURDANCindy0:26:42N/A2640N/A
17708XIMENEZVincent0:26:5020872627+540
17707DI-BRANGOSebastien0:26:5218972624+727
13625SIMONAntoine0:28:1414962497+1001
23283CRESPINAlexis0:29:34N/A2384N/A
17418LAFARGEEmeline0:30:5832282276-952
11542BONORAMarine0:33:4220642092+28
23285JOURDANAurélien0:33:46N/A2088N/A
23282BONNAVEIRAFabien0:35:38N/A1978N/A
20744LE PENNECJean0:38:5412901812+522
10430VALETTEMarion0:39:0418971804-93
12045CHAILLARDDana0:40:3417571738-19
19762BERRARDAnna0:40:3616311736+105
22451RIVOLLIERIsaline0:46:3001516N/A
19894DEFIXJulia0:48:0121351468-667
22566PARDIMENEQuentin0:54:52N/A1285N/A
23120BERARDFlorent1:00:42N/A1161N/A
15417ROCHEJonathan1:33:152491756-1735
20863GENNAROLeslieN/A00N/A
17929MOREAUNoeN/A22420-2242

  Indice de confiance du circuit (moyenne des différences entre CN et score sur la course des 3 à 10 premiers) : 424






 Retour